createdAt,value
2022-08-08T00:00:52.462Z,0.30
2022-08-08T00:03:20.137Z,0.38
2022-08-08T00:06:35.526Z,0.20
2022-08-08T00:09:15.902Z,0.30
2022-08-08T00:12:07.612Z,0.30
2022-08-08T00:15:09.200Z,0.22
2022-08-08T00:18:03.844Z,0.20
2022-08-08T00:20:50.377Z,0.30
2022-08-08T00:23:47.786Z,0.20
2022-08-08T00:26:30.037Z,0.25
2022-08-08T00:29:17.485Z,0.30
2022-08-08T00:32:21.177Z,0.30
2022-08-08T00:35:34.247Z,0.20
2022-08-08T00:38:04.421Z,0.30
2022-08-08T00:41:11.940Z,0.28
2022-08-08T00:44:10.560Z,0.40
2022-08-08T00:47:14.236Z,0.40
2022-08-08T00:49:58.365Z,0.25
2022-08-08T00:52:48.459Z,0.50
2022-08-08T00:55:52.957Z,0.35
2022-08-08T00:59:44.183Z,0.30
2022-08-08T01:04:02.253Z,0.30
2022-08-08T01:05:58.706Z,0.30
2022-08-08T01:08:46.804Z,0.30
2022-08-08T01:11:52.977Z,0.30
2022-08-08T01:14:54.795Z,0.30
2022-08-08T01:18:02.170Z,0.40
2022-08-08T01:20:44.304Z,0.40
2022-08-08T01:24:06.438Z,0.40
2022-08-08T01:26:32.057Z,0.20
2022-08-08T01:29:35.389Z,0.30
2022-08-08T01:32:36.858Z,0.30
2022-08-08T01:35:15.861Z,0.30
2022-08-08T01:37:59.292Z,0.30
2022-08-08T01:40:45.791Z,0.30
2022-08-08T01:43:38.992Z,0.30
2022-08-08T01:46:52.290Z,0.30
2022-08-08T01:49:53.479Z,0.20
2022-08-08T01:54:04.389Z,0.30
2022-08-08T01:56:29.674Z,0.30
2022-08-08T02:00:00.771Z,0.30
2022-08-08T02:02:56.359Z,0.20
2022-08-08T02:06:32.248Z,0.40
2022-08-08T02:10:02.106Z,0.32
2022-08-08T02:12:43.887Z,0.40
2022-08-08T02:15:28.867Z,0.30
2022-08-08T02:18:17.415Z,0.40
2022-08-08T02:21:23.402Z,0.40
2022-08-08T02:24:00.015Z,0.40
2022-08-08T02:26:41.727Z,0.40
2022-08-08T02:29:41.563Z,0.40
2022-08-08T02:32:36.437Z,0.30
2022-08-08T02:35:11.775Z,0.40
2022-08-08T02:38:15.102Z,0.40
2022-08-08T02:41:59.384Z,0.30
2022-08-08T02:44:42.287Z,0.40
2022-08-08T02:47:55.045Z,0.38
2022-08-08T02:50:52.855Z,0.30
2022-08-08T02:53:47.359Z,0.40
2022-08-08T02:56:50.915Z,0.40
2022-08-08T02:59:57.905Z,0.40
2022-08-08T03:02:39.026Z,0.40
2022-08-08T03:05:46.870Z,0.30
2022-08-08T03:08:45.056Z,0.40
2022-08-08T03:12:01.598Z,0.50
2022-08-08T03:16:00.905Z,0.43
2022-08-08T03:18:04.653Z,0.40
2022-08-08T03:20:51.379Z,0.30
2022-08-08T03:23:23.797Z,0.40
2022-08-08T03:25:58.434Z,0.30
2022-08-08T03:28:46.566Z,0.40
2022-08-08T03:32:06.594Z,0.40
2022-08-08T03:34:31.212Z,0.38
2022-08-08T03:36:58.603Z,0.40
2022-08-08T03:39:26.244Z,0.40
2022-08-08T03:42:13.307Z,0.50
2022-08-08T03:44:47.755Z,0.40
2022-08-08T03:47:22.867Z,0.30
2022-08-08T03:49:59.994Z,0.47
2022-08-08T03:52:35.391Z,0.40
2022-08-08T03:55:56.424Z,0.40
2022-08-08T03:58:32.274Z,0.40
2022-08-08T04:01:01.530Z,0.50
2022-08-08T04:03:57.035Z,0.43
2022-08-08T04:06:23.723Z,0.40
2022-08-08T04:08:56.411Z,0.45
2022-08-08T04:11:25.376Z,0.40
2022-08-08T04:14:04.319Z,0.50
2022-08-08T04:16:41.829Z,0.50
2022-08-08T04:19:25.272Z,0.55
2022-08-08T04:24:31.338Z,0.60
2022-08-08T04:27:02.497Z,0.50
2022-08-08T04:29:37.355Z,0.50
2022-08-08T04:32:14.300Z,0.43
2022-08-08T04:34:58.892Z,0.50
2022-08-08T04:37:32.839Z,0.30
2022-08-08T04:40:10.710Z,0.50
2022-08-08T04:42:57.349Z,0.40
2022-08-08T04:45:28.676Z,0.50
2022-08-08T04:48:00.469Z,0.60
2022-08-08T04:50:37.952Z,0.40
2022-08-08T04:53:14.011Z,0.50
2022-08-08T04:55:59.014Z,0.40
2022-08-08T04:58:34.969Z,0.50
2022-08-08T05:01:09.181Z,0.43
2022-08-08T05:04:09.842Z,0.45
2022-08-08T05:06:33.518Z,0.40
2022-08-08T05:09:06.043Z,0.30
2022-08-08T05:11:39.392Z,0.40
2022-08-08T05:14:12.401Z,0.38
2022-08-08T05:16:52.756Z,0.43
2022-08-08T05:20:09.478Z,0.50
2022-08-08T05:22:17.587Z,0.40
2022-08-08T05:24:48.969Z,0.50
2022-08-08T05:27:19.990Z,0.40
2022-08-08T05:29:51.988Z,0.32
2022-08-08T05:32:27.112Z,0.63
2022-08-08T05:37:52.707Z,0.47
2022-08-08T05:40:28.088Z,0.50
2022-08-08T05:43:40.148Z,0.40
2022-08-08T05:46:07.761Z,0.40
2022-08-08T05:48:38.795Z,0.50
2022-08-08T05:51:14.814Z,0.50
2022-08-08T05:54:26.177Z,0.50
2022-08-08T05:56:42.651Z,0.50
2022-08-08T05:59:58.764Z,0.80
2022-08-08T06:02:43.259Z,0.45
2022-08-08T06:05:33.946Z,0.40
2022-08-08T06:08:09.746Z,0.40
2022-08-08T06:10:49.331Z,0.50
2022-08-08T06:13:22.389Z,0.60
2022-08-08T06:15:53.732Z,0.80
2022-08-08T06:18:40.235Z,0.60
2022-08-08T06:21:27.877Z,0.52
2022-08-08T06:24:03.619Z,0.60
2022-08-08T06:26:45.456Z,0.75
2022-08-08T06:29:56.747Z,0.70
2022-08-08T06:32:27.437Z,0.57
2022-08-08T06:36:00.461Z,0.60
2022-08-08T06:38:00.641Z,0.80
2022-08-08T06:40:36.795Z,0.70
2022-08-08T06:43:10.336Z,0.60
2022-08-08T06:45:58.214Z,0.50
2022-08-08T06:48:26.706Z,0.50
2022-08-08T06:50:55.764Z,0.50
2022-08-08T06:53:25.504Z,0.40
2022-08-08T06:56:09.022Z,0.40
2022-08-08T06:58:37.190Z,0.45
2022-08-08T07:02:16.921Z,0.50
2022-08-08T07:04:38.732Z,0.55
2022-08-08T07:07:10.684Z,0.40
2022-08-08T07:09:56.519Z,0.60
2022-08-08T07:12:42.801Z,0.50
2022-08-08T07:15:32.450Z,0.50
2022-08-08T07:18:36.848Z,0.52
2022-08-08T07:24:01.442Z,0.35
2022-08-08T07:26:36.231Z,0.65
2022-08-08T07:29:07.931Z,0.50
2022-08-08T07:31:36.653Z,0.50
2022-08-08T07:34:08.614Z,0.50
2022-08-08T07:36:42.081Z,0.30
2022-08-08T07:39:29.293Z,0.40
2022-08-08T07:42:04.917Z,0.40
2022-08-08T07:44:37.650Z,0.30
2022-08-08T07:47:09.043Z,0.40
2022-08-08T07:49:39.874Z,0.45
2022-08-08T07:52:13.479Z,0.40
2022-08-08T07:55:29.492Z,0.75
2022-08-08T07:58:42.979Z,0.40
2022-08-08T08:01:20.455Z,0.30
2022-08-08T08:04:02.720Z,0.30
2022-08-08T08:06:38.518Z,0.30
2022-08-08T08:09:26.438Z,0.40
2022-08-08T08:11:56.673Z,0.20
2022-08-08T08:15:04.265Z,0.32
2022-08-08T08:17:48.849Z,0.20
2022-08-08T08:20:30.483Z,0.30
2022-08-08T08:22:59.845Z,0.30
2022-08-08T08:25:42.503Z,0.20
2022-08-08T08:28:17.089Z,0.30
2022-08-08T08:30:49.855Z,0.28
2022-08-08T08:33:17.398Z,0.30
2022-08-08T08:36:20.281Z,0.20
2022-08-08T08:38:35.927Z,0.28
2022-08-08T08:41:13.242Z,0.20
2022-08-08T08:43:48.902Z,0.32
2022-08-08T08:46:17.785Z,0.30
2022-08-08T08:48:49.618Z,0.30
2022-08-08T08:51:18.079Z,0.20
2022-08-08T08:53:56.695Z,0.40
2022-08-08T08:56:29.772Z,0.20
2022-08-08T08:59:08.990Z,0.28
2022-08-08T09:01:50.451Z,0.20
2022-08-08T09:04:38.672Z,0.20
2022-08-08T09:07:39.121Z,0.52
2022-08-08T09:10:17.477Z,0.20
2022-08-08T09:12:48.541Z,0.40
2022-08-08T09:15:18.598Z,0.20
2022-08-08T09:18:04.596Z,0.45
2022-08-08T09:22:00.538Z,0.40
2022-08-08T09:23:25.810Z,0.30
2022-08-08T09:26:26.916Z,0.32
2022-08-08T09:29:08.219Z,0.30
2022-08-08T09:31:56.731Z,0.30
2022-08-08T09:34:34.976Z,0.30
2022-08-08T09:37:59.001Z,0.30
2022-08-08T09:40:11.253Z,0.40
2022-08-08T09:42:44.171Z,0.25
2022-08-08T09:45:55.490Z,0.22
2022-08-08T09:51:05.144Z,0.32
2022-08-08T09:54:01.227Z,0.30
2022-08-08T09:56:27.800Z,0.25
2022-08-08T09:59:20.185Z,0.20
2022-08-08T10:01:59.029Z,0.20
2022-08-08T10:04:41.463Z,0.38
2022-08-08T10:07:14.023Z,0.30
2022-08-08T10:10:00.043Z,0.28
2022-08-08T10:12:38.713Z,0.30
2022-08-08T10:15:24.211Z,0.45
2022-08-08T10:18:04.027Z,0.45
2022-08-08T10:20:51.417Z,0.40
2022-08-08T10:23:47.174Z,0.30
2022-08-08T10:26:30.108Z,0.43
2022-08-08T10:29:12.684Z,0.50
2022-08-08T10:32:14.888Z,0.40
2022-08-08T10:34:58.879Z,0.40
2022-08-08T10:37:30.567Z,0.40
2022-08-08T10:39:59.145Z,0.40
2022-08-08T10:42:34.629Z,0.40
2022-08-08T10:45:08.854Z,0.50
2022-08-08T10:47:44.003Z,0.40
2022-08-08T10:50:16.022Z,0.35
2022-08-08T10:52:44.598Z,0.30
2022-08-08T10:55:39.972Z,0.40
2022-08-08T10:58:08.485Z,0.30
2022-08-08T11:00:53.563Z,0.40
2022-08-08T11:03:36.313Z,0.30
2022-08-08T11:06:16.528Z,0.40
2022-08-08T11:08:53.111Z,0.20
2022-08-08T11:12:00.598Z,0.30
2022-08-08T11:14:15.712Z,0.20
2022-08-08T11:16:46.725Z,0.40
2022-08-08T11:19:15.707Z,0.40
2022-08-08T11:21:55.604Z,0.40
2022-08-08T11:24:27.287Z,0.40
2022-08-08T11:27:01.437Z,0.30
2022-08-08T11:29:50.867Z,0.20
2022-08-08T11:32:29.483Z,0.30
2022-08-08T11:35:29.327Z,0.40
2022-08-08T11:38:35.355Z,0.30
2022-08-08T11:40:51.529Z,0.20
2022-08-08T11:43:19.817Z,0.30
2022-08-08T11:46:13.559Z,0.32
2022-08-08T11:48:39.811Z,0.30
2022-08-08T11:51:39.104Z,0.30
2022-08-08T11:54:01.267Z,0.47
2022-08-08T11:56:34.851Z,0.23
2022-08-08T11:59:11.183Z,0.30
2022-08-08T12:01:39.247Z,0.38
2022-08-08T12:04:09.409Z,0.40
2022-08-08T12:06:39.258Z,0.30
2022-08-08T12:09:08.977Z,0.20
2022-08-08T12:11:41.585Z,0.45
2022-08-08T12:14:10.963Z,0.30
2022-08-08T12:16:48.959Z,0.20
2022-08-08T12:19:16.264Z,0.40
2022-08-08T12:22:13.938Z,0.30
2022-08-08T12:24:53.990Z,0.22
2022-08-08T12:27:26.967Z,0.30
2022-08-08T12:30:04.339Z,0.20
2022-08-08T12:32:45.145Z,0.30
2022-08-08T12:35:22.838Z,0.20
2022-08-08T12:38:09.534Z,0.20
2022-08-08T12:40:55.894Z,0.20
2022-08-08T12:43:32.872Z,0.30
2022-08-08T12:46:19.157Z,0.20
2022-08-08T12:51:58.616Z,0.47
2022-08-08T12:54:36.203Z,0.30
2022-08-08T12:57:15.229Z,0.30
2022-08-08T13:00:04.668Z,0.40
2022-08-08T13:02:51.354Z,0.40
2022-08-08T13:05:26.286Z,0.30
2022-08-08T13:08:20.542Z,0.22
2022-08-08T13:10:56.218Z,0.32
2022-08-08T13:13:36.990Z,0.25
2022-08-08T13:16:17.749Z,0.25
2022-08-08T13:18:58.204Z,0.40
2022-08-08T13:21:48.803Z,0.40
2022-08-08T13:24:18.987Z,0.40
2022-08-08T13:27:12.255Z,0.40
2022-08-08T13:30:00.149Z,0.40
2022-08-08T13:32:30.685Z,0.40
2022-08-08T13:34:59.808Z,0.32
2022-08-08T13:38:03.180Z,0.30
2022-08-08T13:40:26.549Z,0.20
2022-08-08T13:42:55.816Z,0.32
2022-08-08T13:45:24.174Z,0.43
2022-08-08T13:48:02.855Z,0.40
2022-08-08T13:50:48.964Z,0.40
2022-08-08T13:53:31.540Z,0.40
2022-08-08T13:56:05.134Z,0.40
2022-08-08T13:58:33.176Z,0.45
2022-08-08T14:01:13.697Z,0.40
2022-08-08T14:03:56.153Z,0.30
2022-08-08T14:06:34.156Z,0.30
2022-08-08T14:09:18.414Z,0.40
2022-08-08T14:11:50.406Z,0.50
2022-08-08T14:14:21.252Z,0.30
2022-08-08T14:16:54.150Z,0.40
2022-08-08T14:19:58.138Z,0.45
2022-08-08T14:22:27.518Z,0.50
2022-08-08T14:25:00.547Z,0.45
2022-08-08T14:27:30.574Z,0.30
2022-08-08T14:30:17.986Z,0.93
2022-08-08T14:32:52.777Z,0.68
2022-08-08T14:35:28.308Z,0.60
2022-08-08T14:38:09.381Z,1.00
2022-08-08T14:40:41.905Z,0.75
2022-08-08T14:43:31.565Z,0.60
2022-08-08T14:46:06.796Z,0.85
2022-08-08T14:48:57.114Z,0.60
2022-08-08T14:51:47.157Z,0.60
2022-08-08T14:54:14.069Z,0.60
2022-08-08T14:56:48.759Z,0.50
2022-08-08T14:59:22.642Z,0.50
2022-08-08T15:02:05.735Z,0.60
2022-08-08T15:04:35.100Z,0.40
2022-08-08T15:07:04.227Z,0.65
2022-08-08T15:09:31.415Z,0.40
2022-08-08T15:11:59.206Z,0.35
2022-08-08T15:14:26.844Z,0.40
2022-08-08T15:16:55.042Z,0.50
2022-08-08T15:19:27.771Z,0.60
2022-08-08T15:21:55.643Z,0.50
2022-08-08T15:24:24.955Z,0.50
2022-08-08T15:26:58.815Z,0.60
2022-08-08T15:29:39.169Z,0.60
2022-08-08T15:32:19.357Z,0.55
2022-08-08T15:34:48.459Z,0.60
2022-08-08T15:37:17.318Z,0.40
2022-08-08T15:39:46.210Z,0.40
2022-08-08T15:42:31.809Z,0.40
2022-08-08T15:45:02.636Z,0.30
2022-08-08T15:47:32.018Z,0.40
2022-08-08T15:49:59.527Z,0.50
2022-08-08T15:52:26.697Z,0.40
2022-08-08T15:54:53.922Z,0.60
2022-08-08T15:57:22.247Z,0.40
2022-08-08T16:00:05.219Z,0.40
2022-08-08T16:02:44.616Z,0.77
2022-08-08T16:05:20.480Z,0.55
2022-08-08T16:07:52.336Z,0.75
2022-08-08T16:13:10.231Z,0.70
2022-08-08T16:13:30.874Z,0.60
2022-08-08T16:15:58.861Z,0.50
2022-08-08T16:18:33.108Z,0.50
2022-08-08T16:21:01.256Z,0.50
2022-08-08T16:23:32.666Z,0.40
2022-08-08T16:26:04.147Z,0.57
2022-08-08T16:28:35.989Z,0.60
2022-08-08T16:31:07.439Z,0.70
2022-08-08T16:33:38.934Z,0.80
2022-08-08T16:36:13.019Z,0.80
2022-08-08T16:38:45.025Z,0.65
2022-08-08T16:41:20.689Z,0.57
2022-08-08T16:43:52.404Z,0.60
2022-08-08T16:46:38.730Z,0.60
2022-08-08T16:49:08.934Z,0.65
2022-08-08T16:55:00.447Z,0.57
2022-08-08T16:55:04.697Z,0.50
2022-08-08T16:57:27.955Z,0.80
2022-08-08T17:00:08.527Z,0.63
2022-08-08T17:02:39.647Z,0.45
2022-08-08T17:05:08.698Z,0.70
2022-08-08T17:07:40.366Z,0.60
2022-08-08T17:10:09.574Z,0.70
2022-08-08T17:12:37.490Z,0.70
2022-08-08T17:15:17.454Z,0.68
2022-08-08T17:18:03.114Z,0.40
2022-08-08T17:20:32.426Z,0.70
2022-08-08T17:23:17.994Z,0.73
2022-08-08T17:25:52.547Z,0.50
2022-08-08T17:28:34.153Z,0.60
2022-08-08T17:31:39.494Z,0.50
2022-08-08T17:34:54.461Z,0.55
2022-08-08T17:36:55.554Z,0.50
2022-08-08T17:40:02.947Z,0.80
2022-08-08T17:42:18.508Z,0.80
2022-08-08T17:44:49.669Z,0.50
2022-08-08T17:47:27.285Z,0.60
2022-08-08T17:50:01.389Z,0.60
2022-08-08T17:52:35.157Z,0.80
2022-08-08T17:55:05.634Z,0.70
2022-08-08T17:57:49.883Z,0.60
2022-08-08T18:00:19.685Z,0.80
2022-08-08T18:03:04.705Z,0.70
2022-08-08T18:05:48.012Z,0.50
2022-08-08T18:08:37.766Z,0.75
2022-08-08T18:11:11.718Z,0.50
2022-08-08T18:13:42.711Z,0.70
2022-08-08T18:16:11.082Z,0.70
2022-08-08T18:18:45.324Z,0.70
2022-08-08T18:21:34.694Z,0.80
2022-08-08T18:24:03.245Z,0.70
2022-08-08T18:26:30.154Z,0.60
2022-08-08T18:28:57.698Z,0.60
2022-08-08T18:31:27.706Z,0.60
2022-08-08T18:34:18.803Z,0.65
2022-08-08T18:36:45.294Z,0.60
2022-08-08T18:39:27.411Z,0.65
2022-08-08T18:42:03.389Z,0.50
2022-08-08T18:44:32.892Z,0.50
2022-08-08T18:47:02.444Z,1.00
2022-08-08T18:49:32.488Z,0.60
2022-08-08T18:52:18.578Z,0.70
2022-08-08T18:54:59.185Z,0.47
2022-08-08T18:57:31.470Z,0.50
2022-08-08T19:00:00.757Z,0.70
2022-08-08T19:02:29.958Z,0.60
2022-08-08T19:04:57.154Z,0.73
2022-08-08T19:07:29.896Z,0.80
2022-08-08T19:10:15.512Z,0.40
2022-08-08T19:12:44.729Z,0.60
2022-08-08T19:15:21.561Z,0.50
2022-08-08T19:18:30.953Z,0.70
2022-08-08T19:20:52.851Z,0.73
2022-08-08T19:23:21.741Z,0.68
2022-08-08T19:26:19.673Z,0.60
2022-08-08T19:28:36.571Z,0.60
2022-08-08T19:31:07.304Z,0.80
2022-08-08T19:33:52.127Z,0.82
2022-08-08T19:36:28.370Z,0.90
2022-08-08T19:38:59.660Z,0.60
2022-08-08T19:41:33.421Z,0.60
2022-08-08T19:44:12.876Z,0.90
2022-08-08T19:46:50.843Z,0.60
2022-08-08T19:49:19.066Z,0.80
2022-08-08T19:51:46.352Z,0.70
2022-08-08T19:54:16.254Z,0.52
2022-08-08T19:56:49.083Z,0.70
2022-08-08T19:59:18.958Z,0.50
2022-08-08T20:02:02.943Z,0.60
2022-08-08T20:04:31.755Z,0.40
2022-08-08T20:07:05.582Z,0.70
2022-08-08T20:09:55.418Z,0.55
2022-08-08T20:12:32.018Z,0.60
2022-08-08T20:15:14.922Z,0.65
2022-08-08T20:17:46.419Z,0.60
2022-08-08T20:20:18.871Z,0.60
2022-08-08T20:22:53.769Z,0.55
2022-08-08T20:25:21.646Z,0.60
2022-08-08T20:27:49.511Z,0.52
2022-08-08T20:30:52.961Z,0.60
2022-08-08T20:35:59.011Z,0.50
2022-08-08T20:38:32.060Z,0.50
2022-08-08T20:41:17.790Z,0.55
2022-08-08T20:43:49.750Z,0.50
2022-08-08T20:46:20.668Z,0.60
2022-08-08T20:48:51.121Z,0.35
2022-08-08T20:51:18.648Z,0.60
2022-08-08T20:53:58.118Z,0.50
2022-08-08T20:56:36.039Z,0.52
2022-08-08T20:59:20.945Z,0.40
2022-08-08T21:02:07.276Z,0.47
2022-08-08T21:04:55.388Z,0.50
2022-08-08T21:07:47.699Z,0.45
2022-08-08T21:10:28.086Z,0.55
2022-08-08T21:12:57.402Z,0.40
2022-08-08T21:16:05.453Z,0.50
2022-08-08T21:18:18.023Z,0.50
2022-08-08T21:20:50.933Z,0.50
2022-08-08T21:23:25.209Z,0.40
2022-08-08T21:26:10.163Z,0.50
2022-08-08T21:28:38.538Z,0.40
2022-08-08T21:31:23.202Z,0.40
2022-08-08T21:33:54.018Z,0.40
2022-08-08T21:36:28.838Z,0.60
2022-08-08T21:38:56.791Z,0.40
2022-08-08T21:41:38.380Z,0.45
2022-08-08T21:44:11.723Z,0.50
2022-08-08T21:48:06.605Z,0.60
2022-08-08T21:49:29.327Z,0.50
2022-08-08T21:54:31.836Z,0.52
2022-08-08T21:54:53.511Z,0.50
2022-08-08T21:57:20.926Z,0.40
2022-08-08T22:00:02.277Z,0.50
2022-08-08T22:02:40.574Z,0.50
2022-08-08T22:05:09.628Z,0.50
2022-08-08T22:07:39.760Z,0.50
2022-08-08T22:10:09.328Z,0.40
2022-08-08T22:12:38.808Z,0.60
2022-08-08T22:15:07.404Z,0.60
2022-08-08T22:17:45.097Z,0.50
2022-08-08T22:20:23.568Z,0.50
2022-08-08T22:22:52.502Z,0.47
2022-08-08T22:25:25.695Z,0.50
2022-08-08T22:28:02.693Z,0.57
2022-08-08T22:30:42.415Z,0.45
2022-08-08T22:34:10.445Z,0.50
2022-08-08T22:36:05.361Z,0.50
2022-08-08T22:38:48.056Z,0.50
2022-08-08T22:41:21.016Z,0.50
2022-08-08T22:44:02.732Z,0.60
2022-08-08T22:46:33.015Z,0.50
2022-08-08T22:49:00.192Z,0.50
2022-08-08T22:51:28.869Z,0.50
2022-08-08T22:54:33.966Z,0.50
2022-08-08T22:56:43.469Z,0.50
2022-08-08T22:59:18.645Z,0.50
2022-08-08T23:02:03.877Z,0.45
2022-08-08T23:04:33.592Z,0.60
2022-08-08T23:07:02.680Z,0.50
2022-08-08T23:09:39.028Z,0.52
2022-08-08T23:12:28.129Z,0.60
2022-08-08T23:14:59.722Z,0.50
2022-08-08T23:17:53.807Z,0.50
2022-08-08T23:20:21.673Z,0.60
2022-08-08T23:22:55.086Z,0.45
2022-08-08T23:25:22.999Z,0.50
2022-08-08T23:27:49.938Z,0.60
2022-08-08T23:30:22.684Z,0.60
2022-08-08T23:32:51.562Z,0.50
2022-08-08T23:35:18.869Z,0.50
2022-08-08T23:38:02.222Z,0.57
2022-08-08T23:40:31.031Z,0.50
2022-08-08T23:42:58.031Z,0.60
2022-08-08T23:49:01.801Z,0.60
2022-08-08T23:49:03.471Z,0.60
2022-08-08T23:51:03.514Z,0.40
2022-08-08T23:53:56.085Z,0.47
2022-08-08T23:56:23.814Z,0.52
2022-08-08T23:58:59.468Z,0.50
